SKBO/BOG METAR and TAF weather

Enter ICAO airport designator
Station Type Date Time Source
SKBO METAR 2021/09/24 06:00 UTC NOAA

SKBO 240600Z 03004KT 9999 FEW020 BKN100 10/09 Q1028 NOSIG RMK A3037


Station Type Date Time Source
SKBO Decoded METAR 2021/09/24 06:00 UTC NOAA

Bogota / Eldorado, Colombia (SKBO) 04-43N 074-09W 2548M
Sep 24, 2021 - 02:00 AM EDT / 2021.09.24 0600 UTC
Wind: from the NNE (030 degrees) at 5 MPH (4 KT):0
Visibility: greater than 7 mile(s):0
Sky conditions: mostly cloudy
Temperature: 50 F (10 C)
Dew Point: 48 F (9 C)
Relative Humidity: 93%
Pressure (altimeter): 30.36 in. Hg (1028 hPa)
ob: SKBO 240600Z 03004KT 9999 FEW020 BKN100 10/09 Q1028 NOSIG RMK A3037
cycle: 6

Station Type Date Time Source
SKBO TAF 2021/09/24 06:43 UTC NOAA

TAF SKBO 240430Z 2406/2506 VRB02KT 9999 FEW015 BKN080
TEMPO 2408/2412 DZ
BECMG 2415/2417 14010KT SCT020 TX20/2418Z TN09/2410Z

Example: see airport list